CYOWCYND

Guest
Details From CYOW - Ottawa Macdonald Cartier Intl
To CYND - GATINEAU
Flight Number -
Tags generated
Created
Modified
Stats Distance 13 nm / 24 km
Max Altitude 0 ft / 0 m
Waypoints 2
Social Downloads 1
Likes 0
Share VATSIM

Download

Looking for another format? Having issues loading an existing format? Contact us
Advertisement - Login to hide

Notes

Basic altitude profile: - Ascent Rate: 1500ft/min - Ascent Speed: 100kts - Cruise Altitude: 4000ft - Cruise Speed: 120kts - Descent Rate: 1500ft/min - Descent Speed: 100kts Options: - Use NATs: yes - Use PACOTS: yes - Use low airways: yes - Use high airways: yes

Route

CYOW CYND

ID Type Via Altitude Latitude Longitude Leg Dist Tot Dist Heading (true) Name
O CYOW APT - 0 ft / 0 m 45.32282˚ -75.67144˚ - 0 nm - Ottawa Macdonald Cartier Intl
O CYND APT - 0 ft / 0 m 45.52169˚ -75.56359˚ 12 nm 12 nm 21° / 21° GATINEAU

Altitude Profile

Advertisement - Login to hide

CYOW

Details ICAO CYOW (YOW)
Name Ottawa Macdonald Cartier Intl
Region Canada
Timezone America/Toronto (UTC-4.0)
Stats Elevation 374 ft / 114 m (AMSL)
Location 45.322817° -75.671438°
Runways 3
Magnetic Variation 13.224° W

METAR

CYOW 250000Z 19011KT 15SM FEW100 22/09 A2994 RMK AC1 AC TR SLP140 DENSITY ALT 1300FT

Decode

TAF

TAF CYOW 242339Z 2500/2524 19012KT P6SM FEW100 FEW240 BECMG 2501/2503 24012KT FM250900 24010KT P6SM BKN090 BKN230 BECMG 2510/2512 24012G25KT FM251200 24012G25KT P6SM -SHRA BKN090 BKN200 FM251500 24012G25KT P6SM -SHRA BKN025 PROB30 2515/2521 VRB30G40KT 2SM TSRA BR OVC020CB FM252100 25015G25KT P6SM -SHRA BKN025 PROB30 2521/2524 VRB30G40KT 2SM TSRA BR OVC020CB RMK NXT FCST BY 250300Z

Decode

Departure Runways

ID Width Length Bearing (true) Bearing (mag) Surface Threshold Offset Overrun Length
04 75 ft / 23 m 3,304 ft / 1,007 m 25.50° 38.72° Asphalt 0 ft / 0 m 0 ft / 0 m
07 200 ft / 61 m 8,011 ft / 2,442 m 57.16° 70.38° Asphalt 0 ft / 0 m 150 ft / 46 m
14 200 ft / 61 m 9,978 ft / 3,041 m 126.44° 139.66° Asphalt 0 ft / 0 m 150 ft / 46 m
22 75 ft / 23 m 3,304 ft / 1,007 m 205.50° 218.72° Asphalt 0 ft / 0 m 0 ft / 0 m
25 200 ft / 61 m 8,011 ft / 2,442 m 237.18° 250.40° Asphalt 0 ft / 0 m 155 ft / 47 m
32 200 ft / 61 m 9,978 ft / 3,041 m 306.46° 319.68° Asphalt 0 ft / 0 m 150 ft / 46 m

CYND

Details ICAO CYND (YND)
Name GATINEAU
Region Canada
Timezone America/Montreal (UTC-4.0)
Stats Elevation 211 ft / 64 m (AMSL)
Location 45.521693° -75.563587°
Runways 1
Magnetic Variation 13.345° W

METAR

CYND 250000Z 19006KT 160V230 15SM BKN250 23/08 A2992 RMK CI6 SLP133 DENSITY ALT 1200FT

Decode

TAF

TAF CYND 241738Z 2418/2501 23008KT P6SM FEW240 FM242300 23012G22KT P6SM SKC RMK NXT FCST WILL BE ISSUED AT 251245Z

Decode

Destination Runways

ID Width Length Bearing (true) Bearing (mag) Surface Threshold Offset Overrun Length
09 150 ft / 46 m 5,983 ft / 1,824 m 75.36° 88.70° Asphalt 0 ft / 0 m 200 ft / 61 m
27 150 ft / 46 m 5,983 ft / 1,824 m 255.37° 268.71° Asphalt 0 ft / 0 m 200 ft / 61 m

Popular Alternatives